Time;durP1;ratioP1;P1;durP2;ratioP2;P2;SDS_P1;SDS_P2;PMS_P1;PMS_P2;Temp;Humidity;BMP_temperature;BMP_pressure;BME280_temperature;BME280_humidity;BME280_pressure;Samples;Min_cycle;Max_cycle;Signal;HPM_P1;HPM_P2
2022/09/12 00:00:36;;;;;;;;;;;23.00;56.70;;;;;;5006120;28;20462;-75
2022/09/12 00:03:02;;;;;;;;;;;23.00;56.80;;;;;;5002163;28;19922;-75
2022/09/12 00:05:27;;;;;;;;;;;23.00;56.80;;;;;;5003956;28;19917;-75
2022/09/12 00:07:53;;;;;;;;;;;23.00;56.80;;;;;;4987962;28;19917;-74
2022/09/12 00:10:18;;;;;;;;;;;23.00;56.80;;;;;;4987946;28;20354;-75
2022/09/12 00:12:43;;;;;;;;;;;23.00;56.70;;;;;;5004241;28;19972;-75
2022/09/12 00:15:09;;;;;;;;;;;23.00;56.80;;;;;;5001981;28;19921;-75
2022/09/12 00:17:35;;;;;;;;;;;23.00;56.80;;;;;;5004891;28;19944;-75
2022/09/12 00:20:01;;;;;;;;;;;23.00;56.80;;;;;;5003518;28;19964;-75
2022/09/12 00:22:26;;;;;;;;;;;23.00;56.70;;;;;;5004543;28;19925;-74
2022/09/12 00:24:52;;;;;;;;;;;23.00;56.80;;;;;;4991981;28;20048;-76
2022/09/12 00:27:17;;;;;;;;;;;23.00;56.80;;;;;;5012079;28;19968;-75
2022/09/12 00:29:42;;;;;;;;;;;22.90;56.70;;;;;;5010097;28;19924;-75
2022/09/12 00:32:08;;;;;;;;;;;22.90;56.80;;;;;;5012579;28;19921;-75
2022/09/12 00:34:33;;;;;;;;;;;22.90;56.80;;;;;;5010395;28;19914;-75
2022/09/12 00:36:59;;;;;;;;;;;22.90;56.80;;;;;;5009928;28;19914;-75
2022/09/12 00:39:24;;;;;;;;;;;22.90;56.80;;;;;;4993745;28;20316;-76
2022/09/12 00:41:50;;;;;;;;;;;22.90;56.80;;;;;;5007307;28;20378;-75
2022/09/12 00:44:21;;;;;;;;;;;22.90;56.80;;;;;;5008630;28;19980;-75
2022/09/12 00:46:47;;;;;;;;;;;22.90;56.80;;;;;;5011009;28;19941;-75
2022/09/12 00:49:13;;;;;;;;;;;22.90;56.90;;;;;;5012398;28;20411;-76
2022/09/12 00:51:38;;;;;;;;;;;22.90;57.60;;;;;;5010017;28;20004;-75
2022/09/12 00:54:08;;;;;;;;;;;22.90;56.90;;;;;;5012460;28;19979;-75
2022/09/12 00:56:34;;;;;;;;;;;22.90;56.90;;;;;;4991949;28;19928;-75
2022/09/12 00:59:13;;;;;;;;;;;22.90;57.00;;;;;;5002391;28;19914;-75
2022/09/12 01:01:39;;;;;;;;;;;22.80;56.90;;;;;;5006668;28;19953;-75
2022/09/12 01:04:04;;;;;;;;;;;22.90;57.00;;;;;;4991517;28;20425;-75
2022/09/12 01:06:37;;;;;;;;;;;22.80;56.90;;;;;;5010563;28;19913;-75
2022/09/12 01:09:03;;;;;;;;;;;22.80;56.90;;;;;;5008319;28;19910;-74
2022/09/12 01:11:38;;;;;;;;;;;22.80;56.90;;;;;;4994688;28;20354;-75
2022/09/12 01:14:03;;;;;;;;;;;22.80;56.90;;;;;;5006557;28;20328;-73
2022/09/12 01:16:29;;;;;;;;;;;22.80;56.90;;;;;;5004397;28;19922;-75
2022/09/12 01:18:54;;;;;;;;;;;22.80;56.90;;;;;;5003981;28;19921;-74
2022/09/12 01:21:49;;;;;;;;;;;22.80;57.00;;;;;;5003222;28;19960;-74
2022/09/12 01:24:27;;;;;;;;;;;22.80;56.90;;;;;;4931477;28;19968;-75
2022/09/12 01:27:10;;;;;;;;;;;22.80;57.00;;;;;;5002547;28;19996;-75
2022/09/12 01:29:46;;;;;;;;;;;22.70;57.00;;;;;;5006642;28;20048;-75
2022/09/12 01:32:20;;;;;;;;;;;22.70;57.10;;;;;;5000337;28;19913;-75
2022/09/12 01:34:47;;;;;;;;;;;22.70;57.00;;;;;;5001502;28;19921;-75
2022/09/12 01:37:14;;;;;;;;;;;22.70;57.00;;;;;;5005086;28;19914;-76
2022/09/12 01:39:49;;;;;;;;;;;22.70;57.00;;;;;;4999528;28;19921;-75
2022/09/12 01:42:18;;;;;;;;;;;22.70;57.20;;;;;;4995519;28;20397;-76
2022/09/12 01:44:46;;;;;;;;;;;22.70;57.20;;;;;;5011729;28;19909;-75
2022/09/12 01:47:17;;;;;;;;;;;22.70;57.20;;;;;;5014928;28;19913;-75
2022/09/12 01:49:51;;;;;;;;;;;22.70;57.20;;;;;;5015677;28;19910;-75
2022/09/12 01:52:24;;;;;;;;;;;22.70;57.90;;;;;;5014095;28;19914;-75
2022/09/12 01:54:52;;;;;;;;;;;22.70;57.20;;;;;;5012866;28;19918;-75
2022/09/12 01:57:19;;;;;;;;;;;22.70;57.20;;;;;;4993019;28;19913;-74
2022/09/12 01:59:46;;;;;;;;;;;22.70;57.10;;;;;;5013346;28;19921;-76
2022/09/12 02:02:13;;;;;;;;;;;22.60;57.10;;;;;;5013965;28;20004;-75
2022/09/12 02:04:40;;;;;;;;;;;22.70;57.20;;;;;;4997444;28;20016;-74
2022/09/12 02:07:09;;;;;;;;;;;22.60;57.10;;;;;;5012776;28;20016;-75
2022/09/12 02:09:35;;;;;;;;;;;22.70;57.20;;;;;;4998815;28;20397;-75
2022/09/12 02:12:01;;;;;;;;;;;22.70;57.00;;;;;;5012075;28;20010;-75
2022/09/12 02:14:30;;;;;;;;;;;22.70;56.90;;;;;;5006882;28;19972;-75
2022/09/12 02:16:57;;;;;;;;;;;22.70;57.00;;;;;;5005127;28;19980;-75
2022/09/12 02:19:23;;;;;;;;;;;22.70;56.90;;;;;;5004810;28;19917;-75
2022/09/12 02:21:50;;;;;;;;;;;22.70;56.80;;;;;;5007513;28;19997;-75
2022/09/12 02:24:15;;;;;;;;;;;22.70;56.80;;;;;;5005228;28;19929;-75
2022/09/12 02:26:54;;;;;;;;;;;22.70;56.80;;;;;;5004614;28;19913;-75
2022/09/12 02:29:19;;;;;;;;;;;22.70;56.90;;;;;;5007908;28;19924;-73
2022/09/12 02:32:11;;;;;;;;;;;22.60;56.90;;;;;;5003572;28;19922;-76
2022/09/12 02:34:47;;;;;;;;;;;22.60;57.60;;;;;;4978306;28;19918;-75
2022/09/12 02:37:33;;;;;;;;;;;22.70;57.00;;;;;;5002191;28;19969;-74
2022/09/12 02:39:58;;;;;;;;;;;22.70;57.00;;;;;;4986936;28;19918;-75
2022/09/12 02:42:24;;;;;;;;;;;22.60;56.90;;;;;;5006319;28;19917;-75
2022/09/12 02:44:50;;;;;;;;;;;22.60;57.00;;;;;;5001604;28;19914;-75
2022/09/12 02:47:35;;;;;;;;;;;22.60;57.00;;;;;;4986519;28;19921;-74
2022/09/12 02:50:01;;;;;;;;;;;22.60;56.90;;;;;;5006092;28;20388;-75
2022/09/12 02:52:26;;;;;;;;;;;22.60;56.80;;;;;;4984272;28;19921;-75
2022/09/12 02:54:52;;;;;;;;;;;22.60;56.80;;;;;;5008980;28;19920;-75
2022/09/12 02:57:19;;;;;;;;;;;22.60;56.90;;;;;;5014744;28;19921;-75
2022/09/12 02:59:44;;;;;;;;;;;22.60;56.80;;;;;;5011105;28;19921;-74
2022/09/12 03:02:16;;;;;;;;;;;22.60;56.80;;;;;;5011351;28;19921;-74
2022/09/12 03:04:44;;;;;;;;;;;22.60;56.90;;;;;;5014717;28;19917;-76
2022/09/12 03:07:11;;;;;;;;;;;22.60;57.00;;;;;;5011941;28;19913;-75
2022/09/12 03:09:45;;;;;;;;;;;22.60;56.90;;;;;;5009259;28;19968;-75
2022/09/12 03:12:19;;;;;;;;;;;22.60;56.90;;;;;;4986797;28;20373;-76
2022/09/12 03:15:04;;;;;;;;;;;22.60;56.90;;;;;;5004410;28;19979;-75
2022/09/12 03:17:41;;;;;;;;;;;22.60;57.00;;;;;;5005974;28;19964;-75
2022/09/12 03:20:09;;;;;;;;;;;22.60;56.80;;;;;;5012032;28;19921;-75
2022/09/12 03:22:42;;;;;;;;;;;22.60;56.80;;;;;;5013674;28;19928;-74
2022/09/12 03:25:08;;;;;;;;;;;22.60;56.80;;;;;;5007492;28;19921;-74
2022/09/12 03:27:35;;;;;;;;;;;22.60;56.70;;;;;;5011941;28;19921;-74
2022/09/12 03:30:00;;;;;;;;;;;22.60;56.80;;;;;;5011575;28;19918;-74
2022/09/12 03:32:39;;;;;;;;;;;22.60;56.80;;;;;;4995805;28;20071;-76
2022/09/12 03:35:05;;;;;;;;;;;22.60;56.80;;;;;;5007389;28;19913;-74
2022/09/12 03:37:30;;;;;;;;;;;22.60;56.80;;;;;;5010687;28;20528;-74
2022/09/12 03:39:55;;;;;;;;;;;22.60;56.70;;;;;;5013652;28;20277;-76
2022/09/12 03:42:21;;;;;;;;;;;22.60;56.70;;;;;;5011850;28;19940;-75
2022/09/12 03:44:46;;;;;;;;;;;22.50;56.80;;;;;;4994740;28;19913;-76
2022/09/12 03:47:12;;;;;;;;;;;22.50;56.80;;;;;;5011799;28;19918;-76
2022/09/12 03:49:37;;;;;;;;;;;22.50;56.90;;;;;;5012994;28;19920;-75
2022/09/12 03:52:03;;;;;;;;;;;22.50;57.00;;;;;;5008501;28;19914;-75
2022/09/12 03:54:28;;;;;;;;;;;22.50;56.90;;;;;;5011872;28;20072;-74
2022/09/12 03:56:54;;;;;;;;;;;22.50;56.80;;;;;;5013383;28;19913;-76
2022/09/12 03:59:19;;;;;;;;;;;22.50;57.40;;;;;;5011430;28;19917;-75
2022/09/12 04:01:44;;;;;;;;;;;22.50;56.80;;;;;;5013972;28;20385;-75
2022/09/12 04:04:10;;;;;;;;;;;22.50;56.80;;;;;;5001395;28;19921;-75
2022/09/12 04:06:35;;;;;;;;;;;22.50;56.90;;;;;;5009243;28;21399;-75
2022/09/12 04:09:01;;;;;;;;;;;22.50;56.90;;;;;;5009706;28;19920;-75
2022/09/12 04:11:26;;;;;;;;;;;22.50;56.90;;;;;;4995476;28;19936;-75
2022/09/12 04:13:52;;;;;;;;;;;22.50;56.90;;;;;;5011861;28;19921;-75
2022/09/12 04:16:17;;;;;;;;;;;22.40;57.00;;;;;;4994938;28;20404;-75
2022/09/12 04:18:43;;;;;;;;;;;22.40;57.00;;;;;;5019557;28;20393;-75
2022/09/12 04:21:09;;;;;;;;;;;22.40;56.80;;;;;;5010253;28;19920;-75
2022/09/12 04:23:35;;;;;;;;;;;22.40;56.90;;;;;;4992252;28;19940;-75
2022/09/12 04:26:01;;;;;;;;;;;22.40;56.80;;;;;;5013638;28;19916;-75
2022/09/12 04:28:27;;;;;;;;;;;22.40;56.80;;;;;;5009206;28;19913;-74
2022/09/12 04:30:53;;;;;;;;;;;22.40;56.90;;;;;;4976476;28;19910;-74
2022/09/12 04:33:19;;;;;;;;;;;22.40;56.80;;;;;;4994050;28;19916;-74
2022/09/12 04:35:44;;;;;;;;;;;22.40;56.80;;;;;;5008849;28;19980;-75
2022/09/12 04:38:10;;;;;;;;;;;22.40;56.70;;;;;;4994827;28;20021;-75
2022/09/12 04:40:35;;;;;;;;;;;22.30;56.70;;;;;;4998422;28;19925;-75
2022/09/12 04:43:01;;;;;;;;;;;22.40;56.70;;;;;;5012018;28;20385;-75
2022/09/12 04:45:26;;;;;;;;;;;22.30;56.70;;;;;;5006074;28;20250;-75
2022/09/12 04:47:51;;;;;;;;;;;22.30;56.60;;;;;;5012015;28;20336;-74
2022/09/12 04:50:17;;;;;;;;;;;22.30;56.70;;;;;;5012007;28;19955;-75
2022/09/12 04:52:42;;;;;;;;;;;22.30;56.70;;;;;;5012952;28;20266;-75
2022/09/12 04:55:08;;;;;;;;;;;22.30;56.80;;;;;;5009853;28;19914;-75
2022/09/12 04:57:34;;;;;;;;;;;22.30;56.70;;;;;;5005670;28;20388;-75
2022/09/12 05:00:00;;;;;;;;;;;22.30;56.50;;;;;;4999174;28;20281;-74
2022/09/12 05:02:25;;;;;;;;;;;22.30;56.50;;;;;;5016036;28;19921;-75
2022/09/12 05:04:51;;;;;;;;;;;22.30;56.50;;;;;;5010381;28;19921;-74
2022/09/12 05:07:17;;;;;;;;;;;22.30;56.60;;;;;;5012300;28;19910;-75
2022/09/12 05:09:43;;;;;;;;;;;22.30;56.70;;;;;;5010539;28;19913;-74
2022/09/12 05:12:09;;;;;;;;;;;22.30;56.70;;;;;;5010802;28;20422;-75
2022/09/12 05:14:34;;;;;;;;;;;22.30;56.60;;;;;;5003207;28;19918;-74
2022/09/12 05:17:01;;;;;;;;;;;22.30;56.60;;;;;;5006423;28;19918;-75
2022/09/12 05:19:27;;;;;;;;;;;22.30;56.50;;;;;;5001937;28;20385;-73
2022/09/12 05:21:52;;;;;;;;;;;22.20;56.60;;;;;;5009769;28;19920;-75
2022/09/12 05:24:18;;;;;;;;;;;22.20;56.40;;;;;;4991176;28;19914;-75
2022/09/12 05:26:43;;;;;;;;;;;22.20;56.70;;;;;;5002806;28;19995;-76
2022/09/12 05:29:08;;;;;;;;;;;22.20;56.60;;;;;;5011870;28;19914;-75
2022/09/12 05:31:34;;;;;;;;;;;22.20;56.50;;;;;;5008207;28;19921;-75
2022/09/12 05:33:59;;;;;;;;;;;22.20;56.50;;;;;;5011669;28;20391;-75
2022/09/12 05:36:28;;;;;;;;;;;22.20;56.60;;;;;;5009191;28;19924;-75
2022/09/12 05:38:53;;;;;;;;;;;22.20;56.60;;;;;;4992407;28;19925;-75
2022/09/12 05:41:20;;;;;;;;;;;22.20;56.50;;;;;;5001789;28;19913;-75
2022/09/12 05:43:45;;;;;;;;;;;22.20;56.60;;;;;;5001714;28;20463;-75
2022/09/12 05:46:12;;;;;;;;;;;22.20;56.60;;;;;;5009508;28;19921;-75
2022/09/12 05:48:38;;;;;;;;;;;22.20;56.70;;;;;;5010262;28;20397;-75
2022/09/12 05:51:08;;;;;;;;;;;22.20;56.70;;;;;;5007591;28;19921;-75
2022/09/12 05:53:34;;;;;;;;;;;22.20;56.70;;;;;;4979568;28;19989;-75
2022/09/12 05:56:07;;;;;;;;;;;22.20;56.70;;;;;;4993626;28;19917;-75
2022/09/12 05:58:33;;;;;;;;;;;22.10;56.70;;;;;;5012875;28;20219;-76
2022/09/12 06:01:02;;;;;;;;;;;22.10;56.80;;;;;;5006271;28;19917;-74
2022/09/12 06:03:27;;;;;;;;;;;22.10;56.70;;;;;;4984584;28;19999;-74
2022/09/12 06:05:53;;;;;;;;;;;22.10;56.70;;;;;;4985544;28;19921;-75
2022/09/12 06:08:18;;;;;;;;;;;22.20;56.80;;;;;;5008787;28;19928;-74
2022/09/12 06:10:44;;;;;;;;;;;22.10;56.70;;;;;;5003377;28;20309;-74
2022/09/12 06:13:09;;;;;;;;;;;22.10;56.70;;;;;;4992559;28;19918;-75
2022/09/12 06:15:36;;;;;;;;;;;22.10;56.70;;;;;;5004059;28;19924;-75
2022/09/12 06:18:01;;;;;;;;;;;22.10;56.70;;;;;;5006758;28;19914;-74
2022/09/12 06:20:26;;;;;;;;;;;22.10;56.70;;;;;;5008546;28;19936;-75
2022/09/12 06:22:52;;;;;;;;;;;22.10;56.70;;;;;;5007923;28;19983;-75
2022/09/12 06:25:17;;;;;;;;;;;22.10;56.70;;;;;;5011145;28;19925;-75
2022/09/12 06:27:43;;;;;;;;;;;22.10;56.70;;;;;;4992108;28;19936;-75
2022/09/12 06:30:08;;;;;;;;;;;22.10;56.70;;;;;;5013006;28;19916;-74
2022/09/12 06:32:34;;;;;;;;;;;22.10;56.70;;;;;;5012975;28;19920;-75
2022/09/12 06:35:00;;;;;;;;;;;22.10;56.80;;;;;;5014066;28;19914;-74
2022/09/12 06:37:25;;;;;;;;;;;22.10;56.70;;;;;;4996008;28;19925;-74
2022/09/12 06:39:50;;;;;;;;;;;22.10;56.70;;;;;;5012729;28;19913;-74
2022/09/12 06:42:18;;;;;;;;;;;22.10;56.70;;;;;;4995419;28;19989;-74
2022/09/12 06:44:44;;;;;;;;;;;22.10;56.70;;;;;;5015657;28;20351;-75
2022/09/12 06:47:10;;;;;;;;;;;22.10;56.80;;;;;;5000910;28;19953;-74
2022/09/12 06:49:36;;;;;;;;;;;22.10;56.90;;;;;;5001715;28;19921;-75
2022/09/12 06:52:01;;;;;;;;;;;22.00;57.00;;;;;;5019324;28;19909;-75
2022/09/12 06:54:27;;;;;;;;;;;22.00;57.00;;;;;;5017208;28;19913;-75
2022/09/12 06:56:52;;;;;;;;;;;22.00;57.10;;;;;;4995173;28;19913;-75
2022/09/12 06:59:18;;;;;;;;;;;22.00;57.10;;;;;;5017037;28;20301;-75
2022/09/12 07:01:44;;;;;;;;;;;22.00;57.30;;;;;;5005044;28;19928;-74
2022/09/12 07:04:10;;;;;;;;;;;22.00;57.10;;;;;;5004220;28;19929;-74
2022/09/12 07:06:37;;;;;;;;;;;22.00;57.30;;;;;;5005914;28;20007;-74
2022/09/12 07:09:02;;;;;;;;;;;22.00;57.40;;;;;;5008182;28;20388;-74
2022/09/12 07:11:32;;;;;;;;;;;22.00;57.50;;;;;;5003727;28;19918;-74
2022/09/12 07:13:58;;;;;;;;;;;22.00;57.50;;;;;;4991934;28;19914;-75
2022/09/12 07:16:24;;;;;;;;;;;21.90;57.50;;;;;;5003666;28;19914;-74
2022/09/12 07:18:50;;;;;;;;;;;21.90;57.60;;;;;;4989217;28;19914;-75
2022/09/12 07:21:15;;;;;;;;;;;22.00;57.70;;;;;;4990696;28;19925;-74
2022/09/12 07:23:41;;;;;;;;;;;22.00;57.60;;;;;;5008130;28;19921;-74
2022/09/12 07:26:08;;;;;;;;;;;22.00;57.60;;;;;;5004471;28;19979;-74
2022/09/12 07:28:34;;;;;;;;;;;22.00;57.70;;;;;;5005010;28;20000;-74
2022/09/12 07:31:04;;;;;;;;;;;22.00;57.90;;;;;;5006848;28;19918;-75
2022/09/12 07:33:30;;;;;;;;;;;22.00;57.80;;;;;;5007399;28;20016;-74
2022/09/12 07:35:59;;;;;;;;;;;22.00;57.90;;;;;;5006863;28;20040;-74
2022/09/12 07:38:25;;;;;;;;;;;22.00;57.80;;;;;;5005395;28;20600;-75
2022/09/12 07:40:50;;;;;;;;;;;22.00;57.90;;;;;;5005973;28;19918;-75
2022/09/12 07:43:16;;;;;;;;;;;22.00;58.00;;;;;;5006775;28;19928;-75
2022/09/12 07:45:42;;;;;;;;;;;22.00;58.00;;;;;;5003861;28;19997;-74
2022/09/12 07:48:07;;;;;;;;;;;22.00;57.90;;;;;;5010171;28;19921;-74
2022/09/12 07:50:33;;;;;;;;;;;22.00;58.00;;;;;;4984716;28;19921;-74
2022/09/12 07:52:59;;;;;;;;;;;22.00;58.20;;;;;;5004723;28;20409;-74
2022/09/12 07:55:24;;;;;;;;;;;21.90;58.30;;;;;;4990685;28;19936;-75
2022/09/12 07:57:50;;;;;;;;;;;21.90;58.30;;;;;;5001620;28;19921;-75
2022/09/12 08:00:16;;;;;;;;;;;21.90;58.30;;;;;;5007479;28;19917;-74
2022/09/12 08:02:41;;;;;;;;;;;21.90;58.30;;;;;;5002560;28;19924;-74
2022/09/12 08:05:07;;;;;;;;;;;22.00;58.40;;;;;;5002823;28;20017;-74
2022/09/12 08:07:33;;;;;;;;;;;22.00;58.50;;;;;;4997318;28;19925;-75
2022/09/12 08:09:59;;;;;;;;;;;22.00;58.40;;;;;;4982402;28;19922;-74
2022/09/12 08:12:25;;;;;;;;;;;22.00;58.40;;;;;;4987190;28;20020;-75
2022/09/12 08:14:50;;;;;;;;;;;22.00;58.30;;;;;;5000357;28;20017;-75
2022/09/12 08:17:15;;;;;;;;;;;22.00;58.40;;;;;;4987743;28;19961;-74
2022/09/12 08:19:41;;;;;;;;;;;22.00;58.30;;;;;;4987029;28;20329;-74
2022/09/12 08:22:07;;;;;;;;;;;22.00;58.40;;;;;;4985449;28;20024;-74
2022/09/12 08:24:32;;;;;;;;;;;22.10;58.50;;;;;;4984716;28;19918;-75
2022/09/12 08:26:58;;;;;;;;;;;22.00;58.50;;;;;;5000450;28;19914;-75
2022/09/12 08:29:23;;;;;;;;;;;22.00;58.90;;;;;;4986734;28;19914;-75
2022/09/12 08:31:48;;;;;;;;;;;21.90;58.80;;;;;;4984107;28;19910;-74
2022/09/12 08:34:15;;;;;;;;;;;21.90;59.00;;;;;;4983900;28;19958;-75
2022/09/12 08:36:41;;;;;;;;;;;21.90;59.00;;;;;;4982051;28;20005;-75
2022/09/12 08:39:06;;;;;;;;;;;22.00;59.00;;;;;;5002007;28;19918;-75
2022/09/12 08:41:34;;;;;;;;;;;22.00;58.70;;;;;;4999129;28;19918;-74
2022/09/12 08:44:18;;;;;;;;;;;22.00;58.70;;;;;;4983697;28;20578;-74
2022/09/12 08:46:48;;;;;;;;;;;22.00;58.80;;;;;;4986180;28;20330;-74
2022/09/12 08:49:14;;;;;;;;;;;22.00;58.80;;;;;;4986616;28;20361;-74
2022/09/12 08:51:39;;;;;;;;;;;22.00;58.80;;;;;;4998126;28;19949;-74
2022/09/12 08:54:08;;;;;;;;;;;22.00;58.90;;;;;;5001177;28;19980;-74
2022/09/12 08:56:35;;;;;;;;;;;22.00;58.90;;;;;;4999634;28;20293;-74
2022/09/12 08:59:00;;;;;;;;;;;22.00;58.90;;;;;;5000731;28;19917;-75
2022/09/12 09:01:28;;;;;;;;;;;22.00;58.80;;;;;;5000603;28;19918;-74
2022/09/12 09:03:56;;;;;;;;;;;22.00;58.80;;;;;;5002201;28;19918;-74
2022/09/12 09:06:22;;;;;;;;;;;22.00;58.80;;;;;;4984771;28;19917;-74
2022/09/12 09:08:57;;;;;;;;;;;22.00;58.80;;;;;;4985455;28;19920;-74
2022/09/12 09:11:41;;;;;;;;;;;22.00;58.80;;;;;;4992348;28;20055;-74
2022/09/12 09:16:59;;;;;;;;;;;22.00;58.80;;;;;;4991793;28;19929;-74
2022/09/12 09:19:36;;;;;;;;;;;22.00;58.90;;;;;;4988684;28;19918;-75
2022/09/12 09:22:06;;;;;;;;;;;22.00;58.80;;;;;;4996692;28;19918;-74
2022/09/12 09:24:51;;;;;;;;;;;22.00;58.80;;;;;;5002072;28;19918;-75
2022/09/12 09:27:17;;;;;;;;;;;22.00;58.70;;;;;;5001801;28;20448;-74
2022/09/12 09:29:44;;;;;;;;;;;22.10;58.50;;;;;;4995283;28;20008;-74
2022/09/12 09:32:17;;;;;;;;;;;22.20;58.30;;;;;;4999276;28;19968;-74
2022/09/12 09:34:42;;;;;;;;;;;22.20;58.30;;;;;;4985603;28;19936;-74
2022/09/12 09:37:11;;;;;;;;;;;22.10;58.50;;;;;;4982724;28;20374;-75
2022/09/12 09:39:55;;;;;;;;;;;22.10;58.70;;;;;;4984199;28;19922;-75
2022/09/12 09:42:33;;;;;;;;;;;22.10;58.70;;;;;;4982029;28;19922;-75
2022/09/12 09:44:59;;;;;;;;;;;22.10;58.70;;;;;;4996215;28;19938;-75
2022/09/12 09:47:24;;;;;;;;;;;22.10;58.70;;;;;;4981991;28;19926;-74
2022/09/12 09:49:50;;;;;;;;;;;22.10;58.80;;;;;;4996741;28;19949;-75
2022/09/12 09:52:16;;;;;;;;;;;22.00;58.90;;;;;;4984680;28;19917;-74
2022/09/12 09:54:53;;;;;;;;;;;22.00;59.00;;;;;;4999925;28;20274;-75
2022/09/12 09:57:33;;;;;;;;;;;22.00;59.10;;;;;;4983907;28;20004;-74
2022/09/12 10:00:18;;;;;;;;;;;22.00;59.20;;;;;;4982958;28;19957;-74
2022/09/12 10:02:55;;;;;;;;;;;22.00;59.20;;;;;;4990991;28;19917;-74
2022/09/12 10:05:21;;;;;;;;;;;22.00;59.70;;;;;;5001502;28;19917;-75
2022/09/12 10:07:49;;;;;;;;;;;22.00;59.30;;;;;;5006452;28;19913;-74
2022/09/12 10:10:16;;;;;;;;;;;22.10;59.40;;;;;;5007702;28;20451;-74
2022/09/12 10:12:41;;;;;;;;;;;22.00;59.20;;;;;;5005879;28;21134;-74
2022/09/12 10:15:20;;;;;;;;;;;22.10;59.20;;;;;;5008531;28;19917;-74
2022/09/12 10:17:46;;;;;;;;;;;22.10;59.10;;;;;;5005664;28;19917;-75
2022/09/12 10:20:31;;;;;;;;;;;22.00;59.20;;;;;;5004932;28;19917;-75
2022/09/12 10:23:00;;;;;;;;;;;22.00;59.10;;;;;;5002612;28;20321;-75
2022/09/12 10:25:26;;;;;;;;;;;22.00;59.10;;;;;;4990360;28;19971;-74
2022/09/12 10:27:55;;;;;;;;;;;22.00;59.40;;;;;;4993059;28;20004;-74
2022/09/12 10:30:23;;;;;;;;;;;22.10;59.30;;;;;;5006244;28;20404;-74
2022/09/12 10:32:52;;;;;;;;;;;22.10;59.20;;;;;;5008090;28;20284;-74
2022/09/12 10:35:21;;;;;;;;;;;22.10;59.10;;;;;;5007471;28;19968;-75
2022/09/12 10:37:50;;;;;;;;;;;22.10;59.10;;;;;;5006279;28;19924;-74
2022/09/12 10:40:22;;;;;;;;;;;22.10;59.30;;;;;;5007062;28;19917;-75
2022/09/12 10:42:52;;;;;;;;;;;22.10;59.30;;;;;;5006857;28;19913;-75
2022/09/12 10:45:22;;;;;;;;;;;22.10;59.30;;;;;;5002418;28;19913;-75
2022/09/12 10:47:47;;;;;;;;;;;22.10;59.40;;;;;;5008216;28;19914;-75
2022/09/12 10:50:20;;;;;;;;;;;22.10;59.10;;;;;;5006459;28;20286;-75
2022/09/12 10:52:46;;;;;;;;;;;22.20;59.30;;;;;;5007399;28;20032;-75
2022/09/12 10:55:12;;;;;;;;;;;22.20;59.50;;;;;;5003540;28;20436;-75
2022/09/12 10:57:38;;;;;;;;;;;22.20;59.30;;;;;;5006975;28;19980;-74
2022/09/12 11:00:13;;;;;;;;;;;22.30;59.30;;;;;;5008570;28;19992;-74
2022/09/12 11:02:51;;;;;;;;;;;22.30;59.10;;;;;;5005097;28;20034;-75
2022/09/12 11:05:35;;;;;;;;;;;22.40;59.20;;;;;;5004741;28;19925;-75
2022/09/12 11:08:05;;;;;;;;;;;22.40;59.00;;;;;;4993634;28;20642;-74
2022/09/12 11:10:42;;;;;;;;;;;22.50;58.70;;;;;;5008049;28;20444;-75
2022/09/12 11:13:11;;;;;;;;;;;22.50;58.70;;;;;;5007705;28;19947;-74
2022/09/12 11:15:43;;;;;;;;;;;22.50;58.80;;;;;;5005570;28;19961;-75
2022/09/12 11:18:12;;;;;;;;;;;22.50;58.80;;;;;;5006279;28;20020;-74
2022/09/12 11:20:43;;;;;;;;;;;22.50;58.70;;;;;;5006707;28;19917;-75
2022/09/12 11:23:08;;;;;;;;;;;22.50;58.50;;;;;;5004047;28;20012;-75
2022/09/12 11:25:43;;;;;;;;;;;22.60;58.70;;;;;;5007113;28;20342;-75
2022/09/12 11:28:24;;;;;;;;;;;22.50;58.40;;;;;;4990540;28;19913;-74
2022/09/12 11:31:10;;;;;;;;;;;22.60;58.50;;;;;;5007142;28;20320;-73
2022/09/12 11:33:43;;;;;;;;;;;22.60;58.60;;;;;;5005858;28;20296;-74
2022/09/12 11:36:15;;;;;;;;;;;22.60;58.40;;;;;;5004113;28;19922;-74
2022/09/12 11:39:00;;;;;;;;;;;22.60;58.40;;;;;;5006174;28;20278;-74
2022/09/12 11:41:30;;;;;;;;;;;22.50;58.50;;;;;;5006658;28;19918;-75
2022/09/12 11:43:57;;;;;;;;;;;22.60;58.70;;;;;;5004199;28;19922;-75
2022/09/12 11:46:39;;;;;;;;;;;22.60;58.50;;;;;;5009008;28;19989;-75
2022/09/12 11:49:14;;;;;;;;;;;22.50;58.30;;;;;;5008668;28;20344;-76
2022/09/12 11:51:55;;;;;;;;;;;22.60;58.30;;;;;;5006153;28;19921;-74
2022/09/12 11:54:25;;;;;;;;;;;22.60;58.00;;;;;;5012969;28;20427;-74
2022/09/12 11:57:03;;;;;;;;;;;22.60;58.00;;;;;;5011889;28;20004;-74
2022/09/12 11:59:33;;;;;;;;;;;22.60;57.90;;;;;;5011169;28;19918;-74
2022/09/12 12:01:58;;;;;;;;;;;22.50;58.20;;;;;;5010982;28;19913;-75
2022/09/12 12:04:26;;;;;;;;;;;22.50;58.00;;;;;;4994862;28;19928;-74
2022/09/12 12:06:54;;;;;;;;;;;22.60;58.30;;;;;;5016727;28;19929;-74
2022/09/12 12:09:19;;;;;;;;;;;22.60;58.00;;;;;;5010384;28;19916;-74
2022/09/12 12:11:47;;;;;;;;;;;22.70;58.00;;;;;;5009267;28;19917;-75
2022/09/12 12:14:14;;;;;;;;;;;22.70;57.90;;;;;;5010486;28;20288;-74
2022/09/12 12:16:40;;;;;;;;;;;22.70;57.70;;;;;;5007881;28;20365;-75
2022/09/12 12:19:07;;;;;;;;;;;22.70;57.60;;;;;;5010515;28;20099;-75
2022/09/12 12:21:39;;;;;;;;;;;22.70;57.20;;;;;;5012488;28;19999;-74
2022/09/12 12:24:07;;;;;;;;;;;22.80;57.30;;;;;;5011448;28;19921;-74
2022/09/12 12:26:38;;;;;;;;;;;22.80;57.30;;;;;;5013137;28;21304;-74
2022/09/12 12:29:23;;;;;;;;;;;22.70;57.20;;;;;;5009430;28;20368;-75
2022/09/12 12:31:58;;;;;;;;;;;22.80;57.30;;;;;;4995696;28;20297;-74
2022/09/12 12:34:30;;;;;;;;;;;22.80;57.30;;;;;;5014237;28;20016;-74
2022/09/12 12:36:56;;;;;;;;;;;22.90;57.10;;;;;;4992582;28;19924;-73
2022/09/12 12:39:31;;;;;;;;;;;22.90;57.10;;;;;;5012445;28;19909;-74
2022/09/12 12:41:56;;;;;;;;;;;22.90;57.10;;;;;;5000268;28;19914;-75
2022/09/12 12:44:41;;;;;;;;;;;22.90;57.10;;;;;;5010294;28;19921;-75
2022/09/12 12:47:22;;;;;;;;;;;22.90;57.00;;;;;;5001232;28;19917;-74
2022/09/12 12:49:51;;;;;;;;;;;22.90;57.00;;;;;;5011231;28;19917;-74
2022/09/12 12:52:16;;;;;;;;;;;22.90;56.90;;;;;;5010514;28;20633;-73
2022/09/12 12:54:42;;;;;;;;;;;22.90;57.00;;;;;;5011077;28;19914;-73
2022/09/12 12:57:13;;;;;;;;;;;22.90;56.90;;;;;;5012637;28;19935;-74
2022/09/12 12:59:49;;;;;;;;;;;22.90;56.80;;;;;;5011915;28;19933;-75
2022/09/12 13:02:22;;;;;;;;;;;22.90;56.70;;;;;;4994727;28;19967;-74
2022/09/12 13:04:49;;;;;;;;;;;22.90;56.70;;;;;;4998546;28;19967;-75
2022/09/12 13:07:21;;;;;;;;;;;22.90;56.80;;;;;;4994455;28;19921;-75
2022/09/12 13:09:48;;;;;;;;;;;22.90;56.70;;;;;;5012647;28;19968;-74
2022/09/12 13:12:20;;;;;;;;;;;22.90;56.60;;;;;;5011225;28;20389;-74
2022/09/12 13:14:50;;;;;;;;;;;22.90;56.70;;;;;;5015238;28;19967;-74
2022/09/12 13:17:24;;;;;;;;;;;22.90;56.60;;;;;;5011687;28;19917;-75
2022/09/12 13:19:51;;;;;;;;;;;22.90;56.70;;;;;;5011088;28;19968;-75
2022/09/12 13:22:16;;;;;;;;;;;22.90;56.70;;;;;;5011709;28;20012;-74
2022/09/12 13:24:43;;;;;;;;;;;22.90;56.70;;;;;;5012129;28;19960;-74
2022/09/12 13:27:19;;;;;;;;;;;22.80;56.60;;;;;;5009223;28;19945;-75
2022/09/12 13:29:45;;;;;;;;;;;22.90;56.60;;;;;;5011988;28;20345;-75
2022/09/12 13:32:10;;;;;;;;;;;22.80;56.60;;;;;;5012057;28;19921;-74
2022/09/12 13:34:39;;;;;;;;;;;22.80;56.70;;;;;;5005851;28;20394;-74
2022/09/12 13:37:23;;;;;;;;;;;22.80;56.70;;;;;;5011362;28;19964;-74
2022/09/12 13:40:04;;;;;;;;;;;22.90;56.70;;;;;;5012355;28;19913;-75
2022/09/12 13:42:34;;;;;;;;;;;22.90;56.50;;;;;;5013806;28;19928;-74
2022/09/12 13:45:10;;;;;;;;;;;22.90;56.50;;;;;;5013824;28;19996;-74
2022/09/12 13:47:37;;;;;;;;;;;22.90;56.60;;;;;;5014180;28;20044;-74
2022/09/12 13:50:03;;;;;;;;;;;23.00;56.30;;;;;;5015327;28;19961;-74
2022/09/12 13:52:29;;;;;;;;;;;23.00;56.00;;;;;;5010389;28;19917;-74
2022/09/12 13:54:55;;;;;;;;;;;23.10;55.60;;;;;;4995913;28;19921;-75
2022/09/12 13:57:30;;;;;;;;;;;23.00;55.50;;;;;;5015663;28;19917;-74
2022/09/12 13:59:56;;;;;;;;;;;23.00;55.30;;;;;;5016305;28;19977;-74
2022/09/12 14:02:22;;;;;;;;;;;23.00;55.10;;;;;;5015678;28;19928;-75
2022/09/12 14:05:07;;;;;;;;;;;23.00;55.10;;;;;;5014991;28;19917;-74
2022/09/12 14:07:38;;;;;;;;;;;23.10;54.90;;;;;;5012692;28;19913;-73
2022/09/12 14:10:04;;;;;;;;;;;23.10;54.80;;;;;;5007254;28;19920;-74
2022/09/12 14:12:34;;;;;;;;;;;23.10;54.70;;;;;;4997264;28;19917;-75
2022/09/12 14:14:59;;;;;;;;;;;23.10;54.80;;;;;;5014314;28;20673;-74
2022/09/12 14:17:35;;;;;;;;;;;23.10;54.80;;;;;;5011182;28;19918;-75
2022/09/12 14:20:02;;;;;;;;;;;23.10;54.80;;;;;;5009203;28;19968;-74
2022/09/12 14:22:28;;;;;;;;;;;23.10;54.90;;;;;;5015556;28;19987;-74
2022/09/12 14:24:54;;;;;;;;;;;23.10;54.90;;;;;;5004638;28;20047;-74
2022/09/12 14:27:27;;;;;;;;;;;23.10;54.80;;;;;;5014133;28;19913;-74